createdAt,value
2022-10-17T00:00:33.261Z,30.80
2022-10-17T00:03:02.222Z,31.87
2022-10-17T00:05:30.302Z,31.50
2022-10-17T00:07:57.826Z,31.40
2022-10-17T00:10:25.705Z,30.30
2022-10-17T00:12:53.803Z,30.33
2022-10-17T00:15:22.582Z,29.80
2022-10-17T00:17:50.254Z,30.00
2022-10-17T00:20:19.670Z,31.00
2022-10-17T00:22:47.185Z,30.97
2022-10-17T00:25:14.772Z,30.90
2022-10-17T00:27:42.894Z,31.13
2022-10-17T00:30:13.308Z,32.90
2022-10-17T00:32:41.165Z,32.90
2022-10-17T00:35:09.867Z,32.50
2022-10-17T00:37:38.967Z,32.47
2022-10-17T00:40:08.146Z,32.70
2022-10-17T00:42:36.033Z,33.70
2022-10-17T00:45:15.381Z,32.83
2022-10-17T00:47:46.627Z,31.80
2022-10-17T00:50:14.776Z,30.00
2022-10-17T00:52:45.665Z,29.40
2022-10-17T00:55:17.430Z,31.27
2022-10-17T00:57:46.578Z,30.87
2022-10-17T01:00:16.346Z,30.17
2022-10-17T01:02:44.730Z,30.13
2022-10-17T01:05:13.358Z,30.57
2022-10-17T01:07:44.124Z,29.40
2022-10-17T01:10:13.799Z,29.80
2022-10-17T01:12:56.035Z,30.17
2022-10-17T01:15:37.537Z,30.20
2022-10-17T01:18:14.073Z,28.87
2022-10-17T01:21:09.427Z,29.10
2022-10-17T01:24:12.860Z,29.57
2022-10-17T01:27:00.214Z,28.63
2022-10-17T01:29:37.239Z,28.30
2022-10-17T01:32:12.730Z,29.00
2022-10-17T01:34:48.254Z,30.30
2022-10-17T01:37:21.233Z,30.00
2022-10-17T01:39:53.585Z,29.53
2022-10-17T01:42:25.944Z,28.60
2022-10-17T01:44:58.650Z,30.03
2022-10-17T01:47:31.312Z,31.53
2022-10-17T01:50:03.570Z,30.87
2022-10-17T01:52:36.758Z,30.37
2022-10-17T01:55:10.081Z,31.20
2022-10-17T01:57:43.043Z,32.57
2022-10-17T02:00:14.622Z,31.70
2022-10-17T02:02:45.991Z,31.30
2022-10-17T02:05:13.652Z,31.23
2022-10-17T02:07:42.098Z,32.50
2022-10-17T02:10:18.101Z,32.57
2022-10-17T02:12:51.241Z,32.43
2022-10-17T02:15:37.152Z,33.90
2022-10-17T02:18:18.280Z,32.13
2022-10-17T02:20:52.701Z,33.60
2022-10-17T02:23:28.632Z,32.27
2022-10-17T02:26:11.006Z,32.50
2022-10-17T02:28:45.564Z,33.20
2022-10-17T02:31:17.698Z,32.87
2022-10-17T02:33:51.078Z,33.90
2022-10-17T02:36:23.291Z,31.20
2022-10-17T02:38:52.593Z,34.30
2022-10-17T02:41:21.971Z,32.10
2022-10-17T02:43:51.403Z,32.53
2022-10-17T02:46:22.326Z,31.87
2022-10-17T02:48:53.537Z,31.87
2022-10-17T02:51:28.408Z,31.67
2022-10-17T02:54:03.816Z,31.90
2022-10-17T02:56:36.135Z,31.63
2022-10-17T02:59:06.244Z,31.37
2022-10-17T03:01:34.075Z,31.80
2022-10-17T03:04:08.066Z,31.80
2022-10-17T03:06:35.617Z,32.73
2022-10-17T03:09:03.194Z,34.00
2022-10-17T03:11:31.104Z,34.57
2022-10-17T03:13:58.654Z,32.50
2022-10-17T03:16:26.293Z,31.97
2022-10-17T03:18:53.851Z,30.90
2022-10-17T03:21:22.777Z,33.20
2022-10-17T03:23:50.378Z,32.20
2022-10-17T03:26:17.913Z,32.00
2022-10-17T03:28:46.249Z,34.80
2022-10-17T03:31:16.862Z,32.57
2022-10-17T03:33:44.492Z,32.70
2022-10-17T03:36:14.533Z,33.67
2022-10-17T03:38:44.507Z,32.90
2022-10-17T03:41:12.486Z,31.87
2022-10-17T03:43:40.695Z,33.17
2022-10-17T03:46:08.680Z,33.57
2022-10-17T03:48:36.392Z,32.10
2022-10-17T03:51:06.474Z,33.70
2022-10-17T03:53:35.101Z,32.43
2022-10-17T03:56:12.347Z,32.77
2022-10-17T03:58:40.145Z,31.97
2022-10-17T04:01:08.121Z,33.37
2022-10-17T04:03:35.748Z,32.50
2022-10-17T04:06:04.978Z,33.87
2022-10-17T04:08:33.110Z,32.70
2022-10-17T04:11:01.018Z,32.57
2022-10-17T04:13:30.890Z,33.10
2022-10-17T04:16:00.334Z,33.03
2022-10-17T04:18:28.879Z,32.50
2022-10-17T04:20:56.405Z,32.53
2022-10-17T04:23:24.029Z,32.10
2022-10-17T04:25:51.538Z,31.70
2022-10-17T04:28:19.109Z,31.90
2022-10-17T04:30:49.905Z,32.30
2022-10-17T04:33:18.510Z,31.53
2022-10-17T04:35:56.415Z,31.50
2022-10-17T04:38:27.663Z,33.20
2022-10-17T04:40:58.207Z,32.40
2022-10-17T04:43:26.364Z,32.27
2022-10-17T04:45:55.246Z,33.13
2022-10-17T04:48:22.782Z,32.00
2022-10-17T04:50:57.091Z,32.20
2022-10-17T04:53:25.645Z,33.43
2022-10-17T04:55:53.410Z,32.77
2022-10-17T04:58:21.897Z,34.20
2022-10-17T05:00:49.578Z,33.03
2022-10-17T05:03:18.522Z,32.40
2022-10-17T05:05:46.164Z,34.53
2022-10-17T05:08:14.214Z,34.27
2022-10-17T05:10:43.577Z,33.23
2022-10-17T05:13:11.942Z,34.00
2022-10-17T05:15:39.553Z,35.93
2022-10-17T05:18:08.043Z,34.70
2022-10-17T05:20:37.133Z,34.40
2022-10-17T05:23:04.867Z,35.17
2022-10-17T05:25:32.462Z,35.90
2022-10-17T05:27:59.980Z,33.47
2022-10-17T05:30:27.526Z,34.47
2022-10-17T05:32:55.549Z,34.20
2022-10-17T05:35:24.475Z,34.53
2022-10-17T05:37:53.355Z,33.90
2022-10-17T05:40:20.925Z,33.70
2022-10-17T05:42:49.292Z,34.67
2022-10-17T05:45:17.197Z,34.10
2022-10-17T05:47:44.783Z,34.20
2022-10-17T05:50:12.388Z,33.80
2022-10-17T05:52:40.554Z,33.60
2022-10-17T05:55:11.309Z,34.10
2022-10-17T05:57:38.921Z,34.37
2022-10-17T06:00:07.767Z,33.60
2022-10-17T06:02:35.304Z,33.43
2022-10-17T06:05:02.876Z,33.23
2022-10-17T06:07:30.426Z,33.53
2022-10-17T06:09:58.938Z,33.27
2022-10-17T06:12:28.107Z,33.33
2022-10-17T06:14:55.799Z,33.70
2022-10-17T06:17:23.359Z,33.40
2022-10-17T06:19:50.894Z,33.37
2022-10-17T06:22:18.451Z,34.07
2022-10-17T06:24:46.178Z,33.13
2022-10-17T06:27:13.785Z,32.70
2022-10-17T06:29:42.691Z,31.90
2022-10-17T06:32:12.759Z,32.60
2022-10-17T06:34:42.582Z,33.80
2022-10-17T06:37:10.168Z,32.77
2022-10-17T06:39:37.893Z,31.13
2022-10-17T06:42:05.666Z,32.30
2022-10-17T06:44:33.246Z,32.50
2022-10-17T06:47:02.326Z,30.83
2022-10-17T06:49:29.978Z,32.27
2022-10-17T06:51:57.501Z,32.60
2022-10-17T06:54:25.126Z,32.10
2022-10-17T06:56:52.661Z,33.30
2022-10-17T06:59:20.214Z,32.87
2022-10-17T07:01:47.738Z,32.60
2022-10-17T07:04:16.764Z,32.30
2022-10-17T07:06:44.707Z,32.60
2022-10-17T07:09:12.315Z,34.23
2022-10-17T07:11:40.173Z,34.27
2022-10-17T07:14:07.746Z,32.33
2022-10-17T07:16:35.789Z,31.43
2022-10-17T07:19:03.321Z,32.70
2022-10-17T07:21:35.305Z,32.10
2022-10-17T07:24:07.138Z,33.40
2022-10-17T07:26:34.971Z,33.77
2022-10-17T07:29:02.689Z,33.30
2022-10-17T07:31:30.294Z,34.53
2022-10-17T07:34:00.032Z,33.70
2022-10-17T07:36:27.704Z,34.23
2022-10-17T07:38:56.894Z,35.50
2022-10-17T07:41:24.442Z,32.50
2022-10-17T07:43:51.995Z,33.50
2022-10-17T07:46:19.901Z,33.70
2022-10-17T07:48:47.438Z,32.47
2022-10-17T07:51:15.007Z,32.60
2022-10-17T07:53:46.432Z,33.33
2022-10-17T07:56:18.185Z,34.00
2022-10-17T07:58:45.795Z,33.40
2022-10-17T08:01:15.513Z,33.83
2022-10-17T08:03:45.269Z,34.17
2022-10-17T08:06:13.657Z,33.50
2022-10-17T08:08:41.743Z,33.63
2022-10-17T08:11:11.416Z,32.77
2022-10-17T08:13:41.158Z,33.87
2022-10-17T08:16:11.999Z,33.83
2022-10-17T08:18:41.258Z,34.13
2022-10-17T08:21:09.356Z,33.87
2022-10-17T08:23:37.345Z,34.53
2022-10-17T08:26:08.089Z,33.63
2022-10-17T08:28:36.769Z,34.13
2022-10-17T08:31:07.922Z,33.10
2022-10-17T08:33:35.485Z,33.57
2022-10-17T08:36:04.765Z,34.80
2022-10-17T08:38:35.606Z,33.57
2022-10-17T08:41:06.704Z,33.90
2022-10-17T08:43:50.798Z,33.30
2022-10-17T08:46:20.823Z,34.13
2022-10-17T08:48:50.435Z,33.50
2022-10-17T08:51:22.677Z,34.13
2022-10-17T08:53:57.389Z,33.00
2022-10-17T08:59:17.889Z,33.70
2022-10-17T09:01:51.312Z,33.67
2022-10-17T09:04:52.167Z,32.93
2022-10-17T09:07:27.323Z,32.30
2022-10-17T09:10:04.388Z,33.80
2022-10-17T09:12:41.437Z,33.27
2022-10-17T09:15:30.026Z,33.03
2022-10-17T09:18:04.122Z,32.97
2022-10-17T09:20:34.329Z,33.90
2022-10-17T09:23:06.047Z,33.97
2022-10-17T09:25:43.399Z,33.50
2022-10-17T09:28:18.969Z,33.00
2022-10-17T09:30:50.102Z,33.87
2022-10-17T09:33:34.655Z,34.87
2022-10-17T09:36:14.182Z,34.10
2022-10-17T09:38:43.896Z,34.47
2022-10-17T09:41:43.700Z,33.93
2022-10-17T09:44:22.402Z,35.90
2022-10-17T09:47:03.798Z,34.50
2022-10-17T09:49:36.088Z,34.20
2022-10-17T09:52:06.227Z,35.10
2022-10-17T09:54:43.246Z,34.80
2022-10-17T09:57:12.702Z,34.73
2022-10-17T09:59:42.500Z,34.03
2022-10-17T10:02:16.037Z,33.87
2022-10-17T10:05:05.654Z,34.63
2022-10-17T10:07:36.577Z,34.27
2022-10-17T10:10:06.975Z,34.10
2022-10-17T10:12:36.500Z,34.47
2022-10-17T10:15:34.712Z,35.43
2022-10-17T10:18:02.656Z,35.13
2022-10-17T10:20:35.522Z,34.13
2022-10-17T10:23:15.175Z,33.70
2022-10-17T10:25:57.122Z,33.73
2022-10-17T10:28:28.996Z,33.10
2022-10-17T10:30:59.011Z,33.70
2022-10-17T10:33:28.757Z,34.17
2022-10-17T10:36:01.161Z,33.87
2022-10-17T10:38:30.040Z,34.10
2022-10-17T10:41:02.778Z,33.37
2022-10-17T10:43:36.303Z,33.50
2022-10-17T10:46:07.051Z,31.90
2022-10-17T10:48:36.909Z,33.27
2022-10-17T10:51:12.347Z,32.90
2022-10-17T10:53:47.573Z,32.70
2022-10-17T10:56:18.050Z,34.60
2022-10-17T10:58:55.418Z,32.33
2022-10-17T11:01:31.098Z,32.67
2022-10-17T11:04:09.434Z,32.63
2022-10-17T11:06:42.037Z,32.40
2022-10-17T11:09:30.092Z,33.10
2022-10-17T11:12:06.412Z,31.80
2022-10-17T11:14:44.950Z,32.30
2022-10-17T11:17:23.145Z,30.93
2022-10-17T11:19:58.765Z,30.07
2022-10-17T11:22:32.336Z,31.90
2022-10-17T11:25:05.706Z,30.50
2022-10-17T11:27:35.408Z,30.50
2022-10-17T11:30:03.735Z,30.00
2022-10-17T11:32:39.077Z,30.93
2022-10-17T11:35:15.965Z,31.07
2022-10-17T11:37:51.434Z,30.00
2022-10-17T11:40:24.558Z,30.77
2022-10-17T11:42:58.081Z,30.47
2022-10-17T11:45:30.249Z,30.20
2022-10-17T11:48:03.431Z,30.40
2022-10-17T11:53:25.585Z,30.27
2022-10-17T11:55:55.415Z,31.67
2022-10-17T11:58:32.631Z,31.00
2022-10-17T12:01:10.833Z,31.03
2022-10-17T12:03:49.209Z,32.00
2022-10-17T12:06:29.373Z,31.70
2022-10-17T12:09:08.969Z,33.47
2022-10-17T12:11:50.594Z,33.13
2022-10-17T12:14:39.846Z,33.63
2022-10-17T12:17:24.474Z,33.80
2022-10-17T12:19:52.111Z,34.43
2022-10-17T12:22:22.445Z,35.20
2022-10-17T12:25:00.813Z,34.33
2022-10-17T12:27:42.327Z,34.60
2022-10-17T12:30:30.546Z,36.60
2022-10-17T12:33:07.375Z,36.00
2022-10-17T12:35:37.443Z,36.17
2022-10-17T12:38:29.286Z,35.77
2022-10-17T12:41:06.359Z,36.30
2022-10-17T12:43:47.490Z,36.03
2022-10-17T12:46:46.927Z,36.70
2022-10-17T12:49:40.605Z,38.20
2022-10-17T12:55:26.474Z,38.63
2022-10-17T12:58:00.286Z,40.60
2022-10-17T13:00:36.064Z,39.87
2022-10-17T13:03:12.080Z,40.50
2022-10-17T13:05:45.242Z,39.87
2022-10-17T13:08:18.854Z,42.10
2022-10-17T13:10:51.740Z,39.63
2022-10-17T13:13:24.441Z,41.50
2022-10-17T13:15:54.916Z,44.40
2022-10-17T13:18:24.879Z,43.00
2022-10-17T13:21:01.124Z,42.80
2022-10-17T13:23:33.326Z,43.10
2022-10-17T13:26:13.814Z,42.37
2022-10-17T13:28:42.837Z,41.97
2022-10-17T13:31:28.713Z,43.73
2022-10-17T13:33:58.813Z,42.50
2022-10-17T13:36:26.935Z,43.83
2022-10-17T13:38:54.759Z,43.60
2022-10-17T13:41:35.819Z,41.70
2022-10-17T13:44:12.464Z,42.60
2022-10-17T13:46:41.455Z,39.67
2022-10-17T13:49:20.592Z,39.60
2022-10-17T13:51:51.030Z,40.93
2022-10-17T13:54:33.300Z,40.17
2022-10-17T13:57:01.693Z,40.33
2022-10-17T13:59:37.890Z,42.70
2022-10-17T14:02:05.906Z,43.60
2022-10-17T14:04:56.574Z,40.20
2022-10-17T14:07:27.852Z,39.57
2022-10-17T14:09:56.956Z,41.90
2022-10-17T14:12:24.500Z,40.43
2022-10-17T14:15:11.186Z,41.80
2022-10-17T14:17:40.484Z,44.87
2022-10-17T14:20:48.295Z,42.00
2022-10-17T14:23:21.604Z,40.73
2022-10-17T14:25:45.752Z,43.33
2022-10-17T14:28:16.840Z,41.63
2022-10-17T14:31:02.448Z,40.00
2022-10-17T14:33:32.022Z,40.07
2022-10-17T14:36:02.199Z,39.60
2022-10-17T14:38:31.150Z,40.67
2022-10-17T14:41:23.591Z,40.70
2022-10-17T14:43:55.350Z,38.57
2022-10-17T14:46:25.094Z,38.63
2022-10-17T14:48:55.646Z,38.83
2022-10-17T14:51:23.286Z,38.10
2022-10-17T14:54:20.447Z,38.50
2022-10-17T14:56:52.393Z,36.37
2022-10-17T14:59:51.493Z,37.10
2022-10-17T15:02:13.162Z,36.07
2022-10-17T15:04:40.703Z,36.77
2022-10-17T15:07:08.526Z,36.27
2022-10-17T15:09:36.126Z,35.50
2022-10-17T15:12:07.825Z,35.53
2022-10-17T15:14:35.349Z,35.43
2022-10-17T15:17:02.864Z,36.50
2022-10-17T15:19:31.747Z,34.50
2022-10-17T15:21:59.265Z,35.73
2022-10-17T15:24:26.783Z,33.50
2022-10-17T15:29:27.343Z,33.90
2022-10-17T15:31:54.945Z,34.60
2022-10-17T15:34:22.481Z,35.63
2022-10-17T15:36:52.441Z,34.10
2022-10-17T15:39:19.971Z,33.57
2022-10-17T15:41:47.994Z,35.07
2022-10-17T15:44:15.990Z,32.93
2022-10-17T15:46:43.957Z,33.80
2022-10-17T15:49:14.186Z,34.00
2022-10-17T15:51:42.259Z,34.10
2022-10-17T15:54:14.149Z,35.33
2022-10-17T15:56:43.215Z,34.73
2022-10-17T15:59:15.183Z,35.03
2022-10-17T16:01:43.478Z,34.40
2022-10-17T16:04:12.874Z,34.90
2022-10-17T16:06:40.446Z,35.17
2022-10-17T16:09:08.002Z,34.43
2022-10-17T16:11:38.958Z,34.67
2022-10-17T16:14:10.974Z,34.77
2022-10-17T16:16:38.869Z,34.20
2022-10-17T16:19:06.624Z,34.80
2022-10-17T16:21:37.277Z,34.67
2022-10-17T16:24:05.957Z,34.17
2022-10-17T16:26:33.775Z,35.07
2022-10-17T16:29:04.659Z,34.80
2022-10-17T16:31:35.042Z,33.13
2022-10-17T16:34:04.639Z,34.03
2022-10-17T16:36:32.265Z,33.97
2022-10-17T16:38:59.793Z,32.70
2022-10-17T16:41:30.573Z,33.07
2022-10-17T16:43:59.701Z,32.93
2022-10-17T16:46:29.993Z,34.80
2022-10-17T16:48:57.565Z,32.97
2022-10-17T16:51:25.671Z,31.80
2022-10-17T16:53:56.357Z,33.60
2022-10-17T16:56:25.362Z,34.40
2022-10-17T16:58:54.035Z,33.37
2022-10-17T17:01:23.620Z,34.43
2022-10-17T17:03:53.665Z,35.23
2022-10-17T17:06:24.203Z,36.13
2022-10-17T17:08:52.052Z,36.20
2022-10-17T17:11:21.569Z,34.37
2022-10-17T17:13:49.405Z,35.30
2022-10-17T17:16:18.682Z,35.20
2022-10-17T17:18:46.733Z,35.23
2022-10-17T17:21:16.402Z,33.97
2022-10-17T17:23:44.662Z,34.10
2022-10-17T17:26:13.727Z,34.10
2022-10-17T17:28:42.740Z,34.77
2022-10-17T17:31:11.970Z,35.07
2022-10-17T17:33:40.642Z,34.43
2022-10-17T17:36:09.314Z,32.80
2022-10-17T17:38:38.213Z,33.67
2022-10-17T17:41:05.963Z,33.50
2022-10-17T17:43:33.506Z,32.47
2022-10-17T17:46:02.503Z,32.37
2022-10-17T17:48:30.274Z,31.63
2022-10-17T17:50:57.869Z,32.30
2022-10-17T17:53:25.446Z,32.43
2022-10-17T17:56:03.330Z,31.97
2022-10-17T17:58:30.845Z,32.10
2022-10-17T18:00:58.588Z,30.50
2022-10-17T18:03:26.653Z,32.17
2022-10-17T18:05:54.743Z,30.87
2022-10-17T18:08:22.270Z,31.33
2022-10-17T18:10:51.182Z,31.87
2022-10-17T18:13:20.048Z,32.07
2022-10-17T18:15:48.818Z,33.13
2022-10-17T18:18:16.368Z,30.83
2022-10-17T18:20:44.722Z,30.50
2022-10-17T18:23:12.482Z,30.73
2022-10-17T18:25:40.005Z,31.60
2022-10-17T18:28:08.948Z,32.30
2022-10-17T18:30:39.075Z,31.23
2022-10-17T18:33:06.610Z,32.37
2022-10-17T18:35:35.500Z,30.73
2022-10-17T18:38:03.098Z,32.07
2022-10-17T18:40:30.630Z,30.67
2022-10-17T18:42:58.196Z,30.80
2022-10-17T18:45:25.765Z,31.10
2022-10-17T18:47:54.673Z,30.80
2022-10-17T18:50:24.150Z,30.63
2022-10-17T18:52:52.367Z,30.70
2022-10-17T18:55:20.570Z,30.83
2022-10-17T18:57:49.846Z,32.50
2022-10-17T19:00:18.230Z,31.93
2022-10-17T19:02:45.845Z,33.77
2022-10-17T19:05:15.112Z,33.47
2022-10-17T19:07:42.636Z,34.00
2022-10-17T19:10:10.437Z,33.37
2022-10-17T19:12:38.327Z,35.03
2022-10-17T19:15:06.434Z,33.93
2022-10-17T19:17:34.049Z,35.70
2022-10-17T19:20:01.590Z,38.07
2022-10-17T19:22:32.894Z,38.10
2022-10-17T19:25:00.427Z,38.17
2022-10-17T19:27:28.214Z,37.53
2022-10-17T19:29:56.038Z,37.73
2022-10-17T19:32:23.563Z,37.30
2022-10-17T19:34:51.106Z,39.20
2022-10-17T19:37:18.682Z,38.60
2022-10-17T19:39:49.321Z,39.90
2022-10-17T19:42:17.022Z,39.73
2022-10-17T19:44:44.588Z,40.73
2022-10-17T19:47:12.115Z,40.67
2022-10-17T19:49:39.686Z,41.47
2022-10-17T19:52:07.239Z,40.10
2022-10-17T19:54:34.772Z,42.83
2022-10-17T19:57:06.789Z,42.13
2022-10-17T19:59:37.201Z,41.60
2022-10-17T20:02:04.802Z,42.27
2022-10-17T20:04:32.386Z,42.57
2022-10-17T20:07:00.132Z,41.90
2022-10-17T20:09:27.885Z,41.63
2022-10-17T20:11:55.409Z,42.40
2022-10-17T20:14:24.534Z,41.50
2022-10-17T20:16:53.311Z,39.90
2022-10-17T20:19:21.512Z,40.20
2022-10-17T20:21:49.062Z,40.60
2022-10-17T20:24:18.001Z,39.73
2022-10-17T20:26:46.400Z,41.73
2022-10-17T20:29:16.436Z,41.27
2022-10-17T20:31:46.791Z,41.83
2022-10-17T20:34:16.876Z,41.17
2022-10-17T20:36:44.664Z,40.73
2022-10-17T20:39:13.079Z,38.53
2022-10-17T20:41:40.710Z,41.87
2022-10-17T20:44:08.720Z,40.53
2022-10-17T20:46:38.337Z,39.53
2022-10-17T20:49:14.667Z,40.70
2022-10-17T20:51:42.250Z,39.93
2022-10-17T20:54:09.892Z,39.70
2022-10-17T20:56:38.504Z,40.67
2022-10-17T20:59:08.176Z,39.00
2022-10-17T21:01:36.635Z,39.50
2022-10-17T21:06:53.979Z,39.30
2022-10-17T21:09:21.899Z,39.50
2022-10-17T21:11:51.225Z,38.17
2022-10-17T21:14:19.398Z,40.80
2022-10-17T21:16:47.014Z,39.23
2022-10-17T21:19:15.253Z,38.77
2022-10-17T21:21:44.383Z,40.67
2022-10-17T21:24:17.749Z,40.83
2022-10-17T21:26:46.561Z,41.30
2022-10-17T21:29:14.818Z,39.93
2022-10-17T21:31:44.422Z,41.20
2022-10-17T21:34:14.253Z,41.90
2022-10-17T21:36:42.298Z,41.97
2022-10-17T21:39:11.525Z,40.00
2022-10-17T21:41:40.509Z,42.07
2022-10-17T21:44:13.182Z,41.90
2022-10-17T21:46:40.857Z,42.17
2022-10-17T21:49:08.409Z,42.93
2022-10-17T21:51:35.948Z,42.60
2022-10-17T21:54:05.735Z,42.27
2022-10-17T21:56:34.758Z,40.40
2022-10-17T21:59:04.670Z,41.00
2022-10-17T22:01:34.209Z,41.20
2022-10-17T22:04:04.134Z,41.30
2022-10-17T22:06:41.501Z,41.60
2022-10-17T22:09:12.421Z,40.50
2022-10-17T22:11:40.193Z,40.60
2022-10-17T22:14:13.055Z,41.33
2022-10-17T22:16:40.970Z,39.97
2022-10-17T22:19:09.762Z,39.80
2022-10-17T22:21:38.068Z,41.43
2022-10-17T22:24:07.696Z,39.73
2022-10-17T22:26:37.531Z,40.67
2022-10-17T22:29:06.017Z,41.10
2022-10-17T22:31:35.551Z,40.17
2022-10-17T22:34:05.121Z,38.13
2022-10-17T22:36:33.255Z,39.83
2022-10-17T22:39:00.794Z,39.77
2022-10-17T22:41:28.366Z,40.63
2022-10-17T22:43:55.936Z,39.40
2022-10-17T22:46:23.471Z,41.80
2022-10-17T22:48:52.382Z,42.30
2022-10-17T22:51:20.125Z,41.20
2022-10-17T22:53:47.714Z,39.23
2022-10-17T22:56:16.973Z,41.03
2022-10-17T22:58:44.751Z,41.37
2022-10-17T23:01:15.797Z,39.70
2022-10-17T23:03:44.081Z,41.30
2022-10-17T23:06:13.482Z,41.37
2022-10-17T23:08:41.693Z,41.00
2022-10-17T23:11:10.261Z,41.97
2022-10-17T23:13:37.998Z,43.13
2022-10-17T23:16:05.917Z,41.07
2022-10-17T23:18:33.460Z,41.67
2022-10-17T23:21:01.005Z,41.17
2022-10-17T23:23:29.933Z,40.60
2022-10-17T23:26:04.964Z,40.27
2022-10-17T23:28:33.584Z,42.17
2022-10-17T23:31:09.674Z,41.90
2022-10-17T23:33:37.331Z,41.97
2022-10-17T23:36:05.725Z,42.67
2022-10-17T23:38:34.611Z,42.77
2022-10-17T23:41:02.157Z,42.30
2022-10-17T23:43:31.531Z,42.30
2022-10-17T23:45:59.271Z,39.80
2022-10-17T23:48:26.875Z,41.80
2022-10-17T23:50:54.783Z,42.80
2022-10-17T23:53:22.362Z,40.57
2022-10-17T23:55:51.865Z,42.70
2022-10-17T23:58:19.780Z,40.30
